Terminal Aerodrome Forecast
Issued by NWS Upton, NY

Home | Current Version | Previous Version | Text Only | Print | Product List | Glossary On
Versions: 1 2 3 4 5 6 7 8 9 10 11 12 13 14 15 16 17 18 19 20 21 22 23 24 25 26
000
FTUS41 KOKX 010500
TAFISP
TAF
KISP 010528Z 0106/0206 29007KT P6SM BKN250
     FM011600 27006KT P6SM SCT040 BKN120
     FM012100 VRB03KT P6SM FEW030 OVC080
     FM020200 11006KT 2SM -SN OVC015
     FM020400 09011KT 1SM -SN BR OVC007=

USA.gov is the U.S. government's official web portal to all federal, state and local government web resources and services.